Time;durP1;ratioP1;P1;durP2;ratioP2;P2;SDS_P1;SDS_P2;PMS_P1;PMS_P2;Temp;Humidity;BMP_temperature;BMP_pressure;BME280_temperature;BME280_humidity;BME280_pressure;Samples;Min_cycle;Max_cycle;Signal;HPM_P1;HPM_P2
2023/05/28 00:02:04;;;;;;;0.00;0.00;;;;;;;17.54;nan;100697.97;5012657;28;20096;-80
2023/05/28 00:04:29;;;;;;;0.10;0.10;;;;;;;17.45;nan;100686.59;5011368;28;20060;-82
2023/05/28 00:06:55;;;;;;;0.10;0.10;;;;;;;17.52;nan;100687.50;5012796;28;20289;-82
2023/05/28 00:09:21;;;;;;;0.10;0.10;;;;;;;17.41;nan;100680.81;5024680;28;20029;-82
2023/05/28 00:11:46;;;;;;;0.10;0.10;;;;;;;17.42;nan;100681.63;5026805;28;20062;-82
2023/05/28 00:14:11;;;;;;;0.10;0.10;;;;;;;17.34;nan;100684.44;5014667;28;20104;-82
2023/05/28 00:16:37;;;;;;;0.10;0.10;;;;;;;17.32;nan;100679.28;5006828;28;20030;-81
2023/05/28 00:19:04;;;;;;;0.10;0.10;;;;;;;17.37;nan;100679.53;5009440;28;20113;-82
2023/05/28 00:21:33;;;;;;;0.10;0.10;;;;;;;17.41;nan;100682.66;4995018;28;20110;-82
2023/05/28 00:23:59;;;;;;;0.10;0.10;;;;;;;17.29;nan;100687.69;5010777;28;20030;-82
2023/05/28 00:26:28;;;;;;;0.10;0.10;;;;;;;17.30;nan;100683.16;5009561;28;20065;-81
2023/05/28 00:28:55;;;;;;;0.10;0.10;;;;;;;17.31;nan;100674.16;5011230;28;20437;-83
2023/05/28 00:31:22;;;;;;;0.10;0.10;;;;;;;17.17;nan;100684.72;5012953;28;20125;-82
2023/05/28 00:33:47;;;;;;;0.10;0.10;;;;;;;17.22;nan;100675.31;4994684;28;20124;-82
2023/05/28 00:36:13;;;;;;;0.10;0.10;;;;;;;17.15;nan;100696.59;5011377;28;20225;-83
2023/05/28 00:38:38;;;;;;;0.10;0.10;;;;;;;17.04;nan;100684.59;5011592;28;20045;-82
2023/05/28 00:41:03;;;;;;;0.10;0.10;;;;;;;17.07;nan;100670.84;5012683;28;20041;-82
2023/05/28 00:43:28;;;;;;;0.10;0.10;;;;;;;17.06;nan;100676.38;5011546;28;20065;-82
2023/05/28 00:45:57;;;;;;;0.10;0.10;;;;;;;16.98;nan;100678.16;5010606;28;20515;-81
2023/05/28 00:48:23;;;;;;;0.10;0.10;;;;;;;17.02;nan;100678.63;5017306;28;20273;-82
2023/05/28 00:50:49;;;;;;;0.10;0.10;;;;;;;17.08;nan;100685.03;5031144;28;20117;-82
2023/05/28 00:53:15;;;;;;;0.10;0.10;;;;;;;16.92;nan;100676.25;5032052;28;20057;-82
2023/05/28 00:55:40;;;;;;;0.10;0.10;;;;;;;16.74;nan;100692.66;5019378;28;20034;-81
2023/05/28 00:58:07;;;;;;;0.10;0.10;;;;;;;16.53;nan;100692.59;5015759;28;20038;-80
2023/05/28 01:00:36;;;;;;;0.10;0.10;;;;;;;16.46;nan;100691.69;5018368;28;20026;-82
2023/05/28 01:03:02;;;;;;;0.10;0.10;;;;;;;16.37;nan;100690.16;5015052;28;20042;-81
2023/05/28 01:05:31;;;;;;;0.10;0.10;;;;;;;16.31;nan;100683.72;5019860;28;20107;-82
2023/05/28 01:07:57;;;;;;;0.10;0.10;;;;;;;16.21;nan;100693.81;5017299;28;20037;-83
2023/05/28 01:10:23;;;;;;;0.10;0.10;;;;;;;16.08;nan;100697.16;5023577;28;20060;-82
2023/05/28 01:12:49;;;;;;;0.10;0.10;;;;;;;15.94;nan;100690.78;5017971;28;20029;-82
2023/05/28 01:15:14;;;;;;;0.10;0.10;;;;;;;15.81;nan;100686.09;5016845;28;20057;-82
2023/05/28 01:17:40;;;;;;;0.10;0.10;;;;;;;15.60;nan;100681.44;5015570;28;20042;-82
2023/05/28 01:20:10;;;;;;;0.10;0.10;;;;;;;15.48;nan;100683.69;5016780;28;20034;-82
2023/05/28 01:22:40;;;;;;;0.10;0.10;;;;;;;15.33;nan;100680.19;5017059;28;20044;-81
2023/05/28 01:25:09;;;;;;;0.10;0.10;;;;;;;15.15;nan;100672.47;5017324;28;20037;-81
2023/05/28 01:27:43;;;;;;;0.10;0.10;;;;;;;15.10;nan;100676.69;5016059;28;20069;-81
2023/05/28 01:30:09;;;;;;;0.10;0.10;;;;;;;14.96;nan;100684.44;5016461;28;20068;-81
2023/05/28 01:32:38;;;;;;;0.10;0.10;;;;;;;14.81;nan;100687.03;5016527;28;20629;-81
2023/05/28 01:35:05;;;;;;;0.10;0.10;;;;;;;14.72;nan;100681.91;5012054;28;20034;-81
2023/05/28 01:37:39;;;;;;;0.10;0.10;;;;;;;14.59;nan;100688.66;5011949;28;20095;-81
2023/05/28 01:40:07;;;;;;;0.10;0.10;;;;;;;14.39;nan;100687.38;4996316;28;20100;-81
2023/05/28 01:42:34;;;;;;;0.10;0.10;;;;;;;14.39;nan;100684.69;4996649;28;20037;-81
2023/05/28 01:45:01;;;;;;;0.20;0.20;;;;;;;14.23;nan;100681.13;4994961;28;20054;-81
2023/05/28 01:47:27;;;;;;;0.10;0.10;;;;;;;14.26;nan;100679.94;4995491;28;20035;-80
2023/05/28 01:49:53;;;;;;;0.10;0.10;;;;;;;14.25;nan;100683.59;5026523;28;20040;-81
2023/05/28 01:52:18;;;;;;;0.10;0.10;;;;;;;14.30;nan;100680.41;5030877;28;20029;-80
2023/05/28 01:54:44;;;;;;;0.17;0.17;;;;;;;14.28;nan;100680.59;5014038;28;20037;-80
2023/05/28 01:57:10;;;;;;;0.10;0.10;;;;;;;14.28;nan;100683.25;5010988;28;20038;-80
2023/05/28 01:59:35;;;;;;;0.10;0.10;;;;;;;14.30;nan;100683.06;5012872;28;20038;-80
2023/05/28 02:02:01;;;;;;;0.10;0.10;;;;;;;14.33;nan;100682.75;5010842;28;20088;-80
2023/05/28 02:04:26;;;;;;;0.10;0.10;;;;;;;14.33;nan;100685.41;5011919;28;20407;-80
2023/05/28 02:06:51;;;;;;;0.17;0.17;;;;;;;14.34;nan;100687.06;5015377;28;20301;-81
2023/05/28 02:09:17;;;;;;;0.10;0.10;;;;;;;14.35;nan;100683.38;5020705;28;20280;-81
2023/05/28 02:11:42;;;;;;;0.10;0.10;;;;;;;14.32;nan;100687.22;5038137;28;20053;-80
2023/05/28 02:14:08;;;;;;;0.10;0.10;;;;;;;14.27;nan;100683.44;5034409;28;20042;-80
2023/05/28 02:16:35;;;;;;;0.20;0.20;;;;;;;14.22;nan;100687.41;5034056;28;20045;-81
2023/05/28 02:19:00;;;;;;;0.10;0.10;;;;;;;14.23;nan;100686.44;5035275;28;20033;-81
2023/05/28 02:21:26;;;;;;;0.10;0.10;;;;;;;14.27;nan;100680.75;5035190;28;20052;-80
2023/05/28 02:23:51;;;;;;;0.20;0.20;;;;;;;14.28;nan;100677.94;5016874;28;20042;-80
2023/05/28 02:26:20;;;;;;;0.10;0.10;;;;;;;14.24;nan;100680.09;5014738;28;20430;-81
2023/05/28 02:28:46;;;;;;;0.20;0.20;;;;;;;14.22;nan;100682.09;5013953;28;20399;-80
2023/05/28 02:31:12;;;;;;;0.10;0.10;;;;;;;14.18;nan;100683.47;5014678;28;20034;-81
2023/05/28 02:33:41;;;;;;;0.10;0.10;;;;;;;14.11;nan;100673.66;5013808;28;20053;-81
2023/05/28 02:36:08;;;;;;;0.20;0.20;;;;;;;14.10;nan;100678.16;5013235;28;20026;-81
2023/05/28 02:38:33;;;;;;;0.10;0.10;;;;;;;14.06;nan;100673.34;5013944;28;20030;-81
2023/05/28 02:40:59;;;;;;;0.20;0.20;;;;;;;13.96;nan;100670.88;5029001;28;20080;-81
2023/05/28 02:43:24;;;;;;;0.10;0.10;;;;;;;13.87;nan;100675.41;5014187;28;20029;-80
2023/05/28 02:45:49;;;;;;;0.10;0.10;;;;;;;13.77;nan;100678.22;5013234;28;20069;-81
2023/05/28 02:48:15;;;;;;;0.10;0.10;;;;;;;13.65;nan;100679.59;5016285;28;20446;-81
2023/05/28 02:50:40;;;;;;;0.13;0.13;;;;;;;13.53;nan;100678.28;5021708;28;20034;-81
2023/05/28 02:53:05;;;;;;;0.10;0.10;;;;;;;13.43;nan;100680.28;5013382;28;20034;-80
2023/05/28 02:55:30;;;;;;;0.10;0.10;;;;;;;13.34;nan;100682.09;5013100;28;20557;-80
2023/05/28 02:57:56;;;;;;;0.20;0.20;;;;;;;13.29;nan;100676.47;5012235;28;20046;-80
2023/05/28 03:00:21;;;;;;;0.10;0.10;;;;;;;13.21;nan;100676.44;5012205;28;20049;-80
2023/05/28 03:02:47;;;;;;;0.20;0.20;;;;;;;13.15;nan;100672.59;5012257;28;20273;-81
2023/05/28 03:05:12;;;;;;;0.10;0.10;;;;;;;13.05;nan;100680.72;5013758;28;20225;-81
2023/05/28 03:07:37;;;;;;;0.10;0.10;;;;;;;12.99;nan;100683.19;5014623;28;20419;-81
2023/05/28 03:10:04;;;;;;;0.20;0.20;;;;;;;12.86;nan;100689.81;5022518;28;20095;-81
2023/05/28 03:12:29;;;;;;;0.20;0.20;;;;;;;12.80;nan;100686.97;5015647;28;20041;-80
2023/05/28 03:14:54;;;;;;;0.20;0.20;;;;;;;12.79;nan;100691.44;5017207;28;20240;-81
2023/05/28 03:17:20;;;;;;;0.20;0.20;;;;;;;12.72;nan;100685.13;5017916;28;20176;-81
2023/05/28 03:19:45;;;;;;;0.20;0.20;;;;;;;12.73;nan;100687.63;5016185;28;20101;-81
2023/05/28 03:22:10;;;;;;;0.20;0.20;;;;;;;12.71;nan;100686.97;5013006;28;20033;-81
2023/05/28 03:24:35;;;;;;;0.20;0.20;;;;;;;12.67;nan;100692.75;5012146;28;20068;-81
2023/05/28 03:27:02;;;;;;;0.20;0.20;;;;;;;12.63;nan;100686.94;5012346;28;20034;-81
2023/05/28 03:29:27;;;;;;;0.10;0.10;;;;;;;12.62;nan;100695.06;5013914;28;20030;-81
2023/05/28 03:31:52;;;;;;;0.20;0.20;;;;;;;12.56;nan;100690.38;5028182;28;20048;-81
2023/05/28 03:34:17;;;;;;;;;;;;;;;12.50;nan;100689.22;5012566;28;20113;-81
2023/05/28 03:36:42;;;;;;;;;;;;;;;12.44;nan;100685.38;5012919;28;19920;-81
2023/05/28 03:39:09;;;;;;;0.20;0.20;;;;;;;12.42;nan;100686.50;5011861;28;19914;-81
2023/05/28 03:41:35;;;;;;;0.20;0.20;;;;;;;12.42;nan;100678.56;5012980;28;20041;-82
2023/05/28 03:44:00;;;;;;;0.20;0.20;;;;;;;12.43;nan;100682.88;5013264;28;20565;-81
2023/05/28 03:46:26;;;;;;;0.10;0.10;;;;;;;12.60;nan;100683.78;5009900;28;20405;-82
2023/05/28 03:48:51;;;;;;;0.10;0.10;;;;;;;12.73;nan;100681.50;5014640;28;20469;-81
2023/05/28 03:51:16;;;;;;;0.15;0.15;;;;;;;12.64;nan;100682.47;5014231;28;20037;-81
2023/05/28 03:53:41;;;;;;;0.10;0.10;;;;;;;12.60;nan;100683.78;5011955;28;20038;-81
2023/05/28 03:56:07;;;;;;;0.10;0.10;;;;;;;12.75;nan;100688.31;5010231;28;20409;-81
2023/05/28 03:58:32;;;;;;;0.10;0.10;;;;;;;13.00;nan;100692.84;5010819;28;20416;-81
2023/05/28 04:00:58;;;;;;;0.10;0.10;;;;;;;13.03;nan;100684.53;5012213;28;20038;-81
2023/05/28 04:03:23;;;;;;;0.10;0.10;;;;;;;13.06;nan;100686.84;5011281;28;20037;-81
2023/05/28 04:05:48;;;;;;;0.00;0.00;;;;;;;13.07;nan;100693.84;5013160;28;20037;-81
2023/05/28 04:08:13;;;;;;;0.10;0.10;;;;;;;13.12;nan;100687.03;5016055;28;20038;-81
2023/05/28 04:10:39;;;;;;;0.10;0.10;;;;;;;13.16;nan;100685.72;5024068;28;20061;-81
2023/05/28 04:13:04;;;;;;;0.13;0.13;;;;;;;13.18;nan;100685.56;5020264;28;20106;-81
2023/05/28 04:15:29;;;;;;;0.10;0.10;;;;;;;13.35;nan;100683.78;5014975;28;20433;-81
2023/05/28 04:17:55;;;;;;;0.10;0.10;;;;;;;13.57;nan;100688.41;5016680;28;20420;-81
2023/05/28 04:20:20;;;;;;;0.10;0.10;;;;;;;13.50;nan;100682.09;5016537;28;20399;-81
2023/05/28 04:22:46;;;;;;;0.00;0.00;;;;;;;13.74;nan;100683.06;5014791;28;20415;-81
2023/05/28 04:25:12;;;;;;;0.10;0.10;;;;;;;14.00;nan;100682.84;5012692;28;20536;-81
2023/05/28 04:27:37;;;;;;;0.00;0.00;;;;;;;14.32;nan;100687.22;5011527;28;20444;-81
2023/05/28 04:30:03;;;;;;;0.10;0.10;;;;;;;14.22;nan;100683.94;5013455;28;20161;-81
2023/05/28 04:32:31;;;;;;;0.10;0.10;;;;;;;14.27;nan;100688.75;5013955;28;20033;-82
2023/05/28 04:34:56;;;;;;;0.10;0.10;;;;;;;14.37;nan;100692.88;5012151;28;20388;-82
2023/05/28 04:37:21;;;;;;;0.10;0.10;;;;;;;14.41;nan;100691.50;5020740;28;20046;-81
2023/05/28 04:39:47;;;;;;;0.00;0.00;;;;;;;14.67;nan;100684.28;5011286;28;20500;-82
2023/05/28 04:42:16;;;;;;;0.10;0.10;;;;;;;14.71;nan;100689.09;5012930;28;20125;-81
2023/05/28 04:44:43;;;;;;;0.10;0.10;;;;;;;14.69;nan;100691.09;5013089;28;20046;-81
2023/05/28 04:47:08;;;;;;;0.10;0.10;;;;;;;14.62;nan;100687.47;5016216;28;20045;-82
2023/05/28 04:49:34;;;;;;;0.10;0.10;;;;;;;14.69;nan;100679.63;5018268;28;20034;-81
2023/05/28 04:51:59;;;;;;;0.10;0.10;;;;;;;14.62;nan;100693.59;5016509;28;20045;-81
2023/05/28 04:54:26;;;;;;;0.10;0.10;;;;;;;14.65;nan;100693.25;5011861;28;20289;-81
2023/05/28 04:56:51;;;;;;;0.10;0.10;;;;;;;14.59;nan;100693.16;5012553;28;20084;-81
2023/05/28 04:59:16;;;;;;;0.10;0.10;;;;;;;14.66;nan;100702.09;5010538;28;20492;-81
2023/05/28 05:01:42;;;;;;;0.10;0.10;;;;;;;14.73;nan;100703.06;5009999;28;20117;-81
2023/05/28 05:04:08;;;;;;;0.10;0.10;;;;;;;14.82;nan;100696.66;5011476;28;20034;-81
2023/05/28 05:06:33;;;;;;;0.10;0.10;;;;;;;14.82;nan;100704.63;5014642;28;20034;-81
2023/05/28 05:08:59;;;;;;;0.10;0.10;;;;;;;14.81;nan;100699.50;5020209;28;20046;-80
2023/05/28 05:11:26;;;;;;;0.10;0.10;;;;;;;14.98;nan;100701.06;5028437;28;20031;-79
2023/05/28 05:13:51;;;;;;;;;;;;;;;15.09;nan;100699.84;5000363;28;20454;-80
2023/05/28 05:16:16;;;;;;;;;;;;;;;15.15;nan;100691.13;5018089;28;19955;-79
2023/05/28 05:18:42;;;;;;;;;;;;;;;15.24;nan;100692.72;5018490;28;19968;-81
2023/05/28 05:21:09;;;;;;;;;;;;;;;15.23;nan;100695.56;5017510;28;19920;-80
2023/05/28 05:23:35;;;;;;;;;;;;;;;15.32;nan;100699.00;5016204;28;19917;-81
2023/05/28 05:26:00;;;;;;;;;;;;;;;15.35;nan;100695.97;5018260;28;20416;-81
2023/05/28 05:28:26;;;;;;;;;;;;;;;15.48;nan;100693.53;5018734;28;19969;-80
2023/05/28 05:30:51;;;;;;;;;;;;;;;15.67;nan;100705.53;5005860;28;19921;-81
2023/05/28 05:33:16;;;;;;;;;;;;;;;15.77;nan;100705.31;5018788;28;19917;-80
2023/05/28 05:35:41;;;;;;;;;;;;;;;15.82;nan;100708.25;5018817;28;19968;-81
2023/05/28 05:38:06;;;;;;;;;;;;;;;15.97;nan;100714.44;5017612;28;19936;-81
2023/05/28 05:40:32;;;;;;;;;;;;;;;16.01;nan;100715.72;5019419;28;19917;-80
2023/05/28 05:42:57;;;;;;;;;;;;;;;16.26;nan;100708.28;5017982;28;19918;-80
2023/05/28 05:45:22;;;;;;;;;;;;;;;16.53;nan;100712.13;5025812;28;19929;-80
2023/05/28 05:47:47;;;;;;;0.10;0.10;;;;;;;16.83;nan;100714.78;5029780;28;20388;-82
2023/05/28 05:50:12;;;;;;;0.10;0.10;;;;;;;17.18;nan;100715.78;5017063;28;20030;-80
2023/05/28 05:52:38;;;;;;;0.10;0.10;;;;;;;17.52;nan;100716.91;5018547;28;20288;-81
2023/05/28 05:55:05;;;;;;;0.10;0.10;;;;;;;17.91;nan;100723.59;5035941;28;20030;-80
2023/05/28 05:57:32;;;;;;;0.10;0.10;;;;;;;18.09;nan;100717.75;5034323;28;20041;-81
2023/05/28 05:59:57;;;;;;;0.00;0.00;;;;;;;18.49;nan;100723.31;5032856;28;20460;-80
2023/05/28 06:02:22;;;;;;;0.10;0.10;;;;;;;18.84;nan;100718.75;5033673;28;20308;-81
2023/05/28 06:04:47;;;;;;;0.10;0.10;;;;;;;19.07;nan;100713.03;5034859;28;20042;-80
2023/05/28 06:07:13;;;;;;;0.00;0.00;;;;;;;19.42;nan;100717.41;5029858;28;20686;-80
2023/05/28 06:09:39;;;;;;;0.10;0.10;;;;;;;19.68;nan;100709.38;5018054;28;20102;-81
2023/05/28 06:12:04;;;;;;;0.00;0.00;;;;;;;20.24;nan;100715.31;5033281;28;20033;-81
2023/05/28 06:14:29;;;;;;;0.00;0.00;;;;;;;20.43;nan;100710.91;5015053;28;20049;-81
2023/05/28 06:16:55;;;;;;;0.03;0.03;;;;;;;20.88;nan;100713.59;5015251;28;20043;-80
2023/05/28 06:19:21;;;;;;;0.10;0.10;;;;;;;21.25;nan;100709.25;5014728;28;20064;-81
2023/05/28 06:21:46;;;;;;;0.00;0.00;;;;;;;21.23;nan;100711.34;5032777;28;20056;-80
2023/05/28 06:24:11;;;;;;;0.00;0.00;;;;;;;21.45;nan;100717.19;5014798;28;20047;-80
2023/05/28 06:26:37;;;;;;;0.00;0.00;;;;;;;21.56;nan;100716.50;5011999;28;20469;-81
2023/05/28 06:29:02;;;;;;;0.00;0.00;;;;;;;21.87;nan;100714.78;5014589;28;20052;-80
2023/05/28 06:31:27;;;;;;;0.00;0.00;;;;;;;22.40;nan;100726.88;5033160;28;20075;-82
2023/05/28 06:33:53;;;;;;;0.00;0.00;;;;;;;22.68;nan;100726.34;5032489;28;20103;-81
2023/05/28 06:36:18;;;;;;;0.00;0.00;;;;;;;23.06;nan;100722.53;5033015;28;20037;-82
2023/05/28 06:38:44;;;;;;;0.00;0.00;;;;;;;23.54;nan;100721.59;5030335;28;20042;-82
2023/05/28 06:41:09;;;;;;;0.00;0.00;;;;;;;23.92;nan;100723.06;5016045;28;20120;-82
2023/05/28 06:43:36;;;;;;;0.00;0.00;;;;;;;24.07;nan;100726.09;5015135;28;20041;-81
2023/05/28 06:46:01;;;;;;;0.00;0.00;;;;;;;24.21;nan;100717.75;5015684;28;20037;-82
2023/05/28 06:48:26;;;;;;;0.00;0.00;;;;;;;24.08;nan;100716.13;5014904;28;20103;-81
2023/05/28 06:50:52;;;;;;;0.00;0.00;;;;;;;23.83;nan;100719.88;5033226;28;20079;-81
2023/05/28 06:53:18;;;;;;;0.00;0.00;;;;;;;23.59;nan;100715.50;5031496;28;20044;-80
2023/05/28 06:55:43;;;;;;;0.00;0.00;;;;;;;23.24;nan;100722.50;5029478;28;20471;-81
2023/05/28 06:58:08;;;;;;;0.00;0.00;;;;;;;23.35;nan;100730.84;5027519;28;20033;-80
2023/05/28 07:00:34;;;;;;;0.00;0.00;;;;;;;22.97;nan;100718.50;5029420;28;20030;-81
2023/05/28 07:02:59;;;;;;;0.00;0.00;;;;;;;23.14;nan;100724.91;5031813;28;20650;-81
2023/05/28 07:05:24;;;;;;;0.00;0.00;;;;;;;23.42;nan;100728.84;5027308;28;20033;-82
2023/05/28 07:07:50;;;;;;;0.00;0.00;;;;;;;23.94;nan;100729.03;5032019;28;20065;-81
2023/05/28 07:10:16;;;;;;;0.00;0.00;;;;;;;23.90;nan;100727.88;5031444;28;20375;-81
2023/05/28 07:12:41;;;;;;;0.00;0.00;;;;;;;23.97;nan;100727.75;5030696;28;20061;-81
2023/05/28 07:15:07;;;;;;;0.00;0.00;;;;;;;23.48;nan;100730.63;5025176;28;20045;-81
2023/05/28 07:17:32;;;;;;;0.00;0.00;;;;;;;23.82;nan;100726.34;5035309;28;20038;-82
2023/05/28 07:19:58;;;;;;;0.00;0.00;;;;;;;24.44;nan;100725.00;5013847;28;20521;-81
2023/05/28 07:22:24;;;;;;;0.00;0.00;;;;;;;24.96;nan;100725.78;5033796;28;20344;-81
2023/05/28 07:24:49;;;;;;;0.00;0.00;;;;;;;25.28;nan;100735.28;5031447;28;20040;-82
2023/05/28 07:27:15;;;;;;;0.00;0.00;;;;;;;25.49;nan;100734.56;5031021;28;20041;-81
2023/05/28 07:29:40;;;;;;;0.00;0.00;;;;;;;25.66;nan;100734.56;5028025;28;20436;-81
2023/05/28 07:32:06;;;;;;;0.00;0.00;;;;;;;25.81;nan;100729.38;4994335;28;20033;-82
2023/05/28 07:34:31;;;;;;;0.00;0.00;;;;;;;26.08;nan;100736.00;5002498;28;20038;-81
2023/05/28 07:36:56;;;;;;;0.00;0.00;;;;;;;26.23;nan;100736.22;5034196;28;20033;-81
2023/05/28 07:39:22;;;;;;;0.00;0.00;;;;;;;26.67;nan;100737.09;5039603;28;20041;-82
2023/05/28 07:41:47;;;;;;;0.00;0.00;;;;;;;26.94;nan;100735.47;5019195;28;20117;-82
2023/05/28 07:44:15;;;;;;;0.00;0.00;;;;;;;27.22;nan;100737.94;5034473;28;20292;-83
2023/05/28 07:46:40;;;;;;;0.00;0.00;;;;;;;27.73;nan;100735.63;5008674;28;20105;-82
2023/05/28 07:49:06;;;;;;;0.00;0.00;;;;;;;27.93;nan;100734.16;5021667;28;20080;-81
2023/05/28 07:51:32;;;;;;;0.00;0.00;;;;;;;28.42;nan;100727.63;5013679;28;20157;-81
2023/05/28 07:53:57;;;;;;;0.00;0.00;;;;;;;28.26;nan;100724.81;5014551;28;20418;-81
2023/05/28 07:56:23;;;;;;;0.00;0.00;;;;;;;28.34;nan;100720.75;5015303;28;20041;-81
2023/05/28 07:58:48;;;;;;;0.00;0.00;;;;;;;28.95;nan;100728.34;5031207;28;20408;-81
2023/05/28 08:01:13;;;;;;;0.00;0.00;;;;;;;29.09;nan;100728.66;5014242;28;20034;-81
2023/05/28 08:03:39;;;;;;;0.00;0.00;;;;;;;29.50;nan;100728.69;5032433;28;20473;-81
2023/05/28 08:06:04;;;;;;;;;;;;;;;29.52;nan;100730.03;5032162;28;20073;-83
2023/05/28 08:08:30;;;;;;;;;;;;;;;29.59;nan;100727.03;5034829;28;20298;-83
2023/05/28 08:10:55;;;;;;;;;;;;;;;29.49;nan;100721.59;5031335;28;19920;-82
2023/05/28 08:13:20;;;;;;;;;;;;;;;29.20;nan;100730.31;5026095;28;20007;-82
2023/05/28 08:15:46;;;;;;;;;;;;;;;28.76;nan;100723.41;5009970;28;19978;-82
2023/05/28 08:18:11;;;;;;;;;;;;;;;29.17;nan;100714.50;5012575;28;19921;-82
2023/05/28 08:20:36;;;;;;;;;;;;;;;29.47;nan;100719.16;5019059;28;19925;-82
2023/05/28 08:23:02;;;;;;;;;;;;;;;29.63;nan;100712.59;5032661;28;19968;-82
2023/05/28 08:25:27;;;;;;;;;;;;;;;29.18;nan;100716.16;5033566;28;19921;-81
2023/05/28 08:27:52;;;;;;;;;;;;;;;29.51;nan;100712.06;5016118;28;20441;-81
2023/05/28 08:30:18;;;;;;;;;;;;;;;29.85;nan;100715.03;5034610;28;19963;-82
2023/05/28 08:32:43;;;;;;;;;;;;;;;29.62;nan;100701.97;5035094;28;20002;-82
2023/05/28 08:35:08;;;;;;;;;;;;;;;29.73;nan;100700.88;5037214;28;19920;-82
2023/05/28 08:37:33;;;;;;;;;;;;;;;29.61;nan;100695.69;5039114;28;19944;-82
2023/05/28 08:39:59;;;;;;;;;;;;;;;29.47;nan;100697.34;5037098;28;19973;-82
2023/05/28 08:42:27;;;;;;;;;;;;;;;29.42;nan;100695.44;5033622;28;19970;-82
2023/05/28 08:44:52;;;;;;;;;;;;;;;30.20;nan;100699.66;5035290;28;19971;-82
2023/05/28 08:47:17;;;;;;;;;;;;;;;30.25;nan;100699.66;5031006;28;20247;-81
2023/05/28 08:49:50;;;;;;;;;;;;;;;29.70;nan;100687.81;5016742;28;19925;-82
2023/05/28 08:52:17;;;;;;;;;;;;;;;30.16;nan;100682.22;5033844;28;19932;-82
2023/05/28 08:54:42;;;;;;;;;;;;;;;30.06;nan;100693.19;5033818;28;19943;-81
2023/05/28 08:57:08;;;;;;;;;;;;;;;29.73;nan;100681.00;5033122;28;20015;-82
2023/05/28 08:59:34;;;;;;;;;;;;;;;29.12;nan;100685.38;5028947;28;20012;-82
2023/05/28 09:01:59;;;;;;;;;;;;;;;29.81;nan;100675.78;5032842;28;19944;-83
2023/05/28 09:04:25;;;;;;;;;;;;;;;29.76;nan;100673.06;5032702;28;19949;-82
2023/05/28 09:06:53;;;;;;;;;;;;;;;30.86;nan;100670.41;5034970;28;20432;-82
2023/05/28 09:09:19;;;;;;;;;;;;;;;31.24;nan;100667.94;5024915;28;19924;-82
2023/05/28 09:11:45;;;;;;;;;;;;;;;31.40;nan;100665.91;5032229;28;20066;-82
2023/05/28 09:14:11;;;;;;;;;;;;;;;30.67;nan;100673.78;5028539;28;20285;-81
2023/05/28 09:16:39;;;;;;;;;;;;;;;30.56;nan;100668.66;5033811;28;19921;-81
2023/05/28 09:19:05;;;;;;;;;;;;;;;31.09;nan;100653.31;5030771;28;19917;-83
2023/05/28 09:21:30;;;;;;;;;;;;;;;30.64;nan;100655.25;5033769;28;20230;-83
2023/05/28 09:23:55;;;;;;;;;;;;;;;30.97;nan;100655.59;5031469;28;20003;-83
2023/05/28 09:26:21;;;;;;;;;;;;;;;30.65;nan;100654.16;5031083;28;19928;-83
2023/05/28 09:28:46;;;;;;;;;;;;;;;31.01;nan;100651.22;5015862;28;19917;-82
2023/05/28 09:31:11;;;;;;;;;;;;;;;31.93;nan;100653.03;5033953;28;19921;-83
2023/05/28 09:33:45;;;;;;;;;;;;;;;32.13;nan;100642.97;5034043;28;19917;-83
2023/05/28 09:36:11;;;;;;;;;;;;;;;32.63;nan;100640.63;5025965;28;19967;-83
2023/05/28 09:38:40;;;;;;;;;;;;;;;33.10;nan;100641.56;5034235;28;20138;-83
2023/05/28 09:41:05;;;;;;;;;;;;;;;32.06;nan;100634.28;5033599;28;19936;-83
2023/05/28 09:43:30;;;;;;;;;;;;;;;32.19;nan;100630.03;5034530;28;20143;-83
2023/05/28 09:46:08;;;;;;;;;;;;;;;32.32;nan;100630.13;5021072;28;19921;-82
2023/05/28 09:48:33;;;;;;;;;;;;;;;32.95;nan;100625.38;5029401;28;19920;-82
2023/05/28 09:50:59;;;;;;;;;;;;;;;32.84;nan;100626.63;5031496;28;19917;-82
2023/05/28 09:53:25;;;;;;;;;;;;;;;32.99;nan;100627.22;5028604;28;19917;-81
2023/05/28 09:55:50;;;;;;;;;;;;;;;32.81;nan;100621.78;5032218;28;19917;-80
2023/05/28 09:58:16;;;;;;;;;;;;;;;33.22;nan;100619.16;5021295;28;19917;-81
2023/05/28 10:00:46;;;;;;;;;;;;;;;33.29;nan;100619.56;5032178;28;19952;-81
2023/05/28 10:03:18;;;;;;;;;;;;;;;33.13;nan;100610.00;5030554;28;19921;-81
2023/05/28 10:05:43;;;;;;;;;;;;;;;32.37;nan;100613.63;5021183;28;20469;-82
2023/05/28 10:08:11;;;;;;;;;;;;;;;32.65;nan;100619.25;5029496;28;20002;-82
2023/05/28 10:10:39;;;;;;;;;;;;;;;32.76;nan;100612.50;5028762;28;19927;-81
2023/05/28 10:13:04;;;;;;;;;;;;;;;33.13;nan;100612.75;5030678;28;19917;-81
2023/05/28 10:15:30;;;;;;;;;;;;;;;32.29;nan;100614.28;5013943;28;19924;-81
2023/05/28 10:17:55;;;;;;;;;;;;;;;32.66;nan;100614.63;5014062;28;19952;-82
2023/05/28 10:20:21;;;;;;;;;;;;;;;32.27;nan;100616.50;5023345;28;19917;-81
2023/05/28 10:22:47;;;;;;;;;;;;;;;31.63;nan;100624.13;5025955;28;20012;-80
2023/05/28 10:25:13;;;;;;;;;;;;;;;31.91;nan;100603.25;5031578;28;19925;-81
2023/05/28 10:27:44;;;;;;;;;;;;;;;32.07;nan;100611.31;5029908;28;19924;-81
2023/05/28 10:30:09;;;;;;;;;;;;;;;32.57;nan;100618.00;5031362;28;19913;-81
2023/05/28 10:32:40;;;;;;;;;;;;;;;32.74;nan;100613.94;5012974;28;19967;-81
2023/05/28 10:35:06;;;;;;;;;;;;;;;33.27;nan;100610.84;5005013;28;20325;-81
2023/05/28 10:37:35;;;;;;;;;;;;;;;33.58;nan;100604.81;5028871;28;19948;-82
2023/05/28 10:40:00;;;;;;;;;;;;;;;33.72;nan;100605.63;5030771;28;19917;-81
2023/05/28 10:42:25;;;;;;;0.00;0.00;;;;;;;34.16;nan;100604.19;5003926;28;19925;-82
2023/05/28 10:45:00;;;;;;;0.00;0.00;;;;;;;34.52;nan;100606.09;5012036;28;20299;-82
2023/05/28 10:47:39;;;;;;;0.00;0.00;;;;;;;34.38;nan;100608.88;5029674;28;20041;-81
2023/05/28 10:50:11;;;;;;;0.00;0.00;;;;;;;34.84;nan;100591.31;5012659;28;20038;-82
2023/05/28 10:52:37;;;;;;;0.00;0.00;;;;;;;34.53;nan;100598.66;5004817;28;20414;-81
2023/05/28 10:55:06;;;;;;;0.00;0.00;;;;;;;35.23;nan;100586.22;5011246;28;20124;-82
2023/05/28 10:57:47;;;;;;;0.00;0.00;;;;;;;35.09;nan;100589.84;5026163;28;20053;-82
2023/05/28 11:00:23;;;;;;;0.00;0.00;;;;;;;35.34;nan;100586.75;5012767;28;20029;-81
2023/05/28 11:02:51;;;;;;;0.00;0.00;;;;;;;35.01;nan;100584.31;5029886;28;20087;-81
2023/05/28 11:05:16;;;;;;;0.00;0.00;;;;;;;34.88;nan;100578.59;5012704;28;20037;-81
2023/05/28 11:07:42;;;;;;;0.00;0.00;;;;;;;35.41;nan;100578.88;5020074;28;20073;-82
2023/05/28 11:10:15;;;;;;;0.00;0.00;;;;;;;35.73;nan;100584.03;5024444;28;20441;-82
2023/05/28 11:12:41;;;;;;;0.00;0.00;;;;;;;36.33;nan;100579.75;5027862;28;20041;-83
2023/05/28 11:15:08;;;;;;;0.00;0.00;;;;;;;36.21;nan;100570.50;5030294;28;20050;-83
2023/05/28 11:17:38;;;;;;;0.00;0.00;;;;;;;35.65;nan;100576.53;5031106;28;20041;-83
2023/05/28 11:20:04;;;;;;;0.00;0.00;;;;;;;36.39;nan;100572.13;5034071;28;20040;-84
2023/05/28 11:22:37;;;;;;;0.00;0.00;;;;;;;36.23;nan;100571.81;5031912;28;20049;-83
2023/05/28 11:25:08;;;;;;;0.00;0.00;;;;;;;36.77;nan;100566.75;5032398;28;20129;-83
2023/05/28 11:27:37;;;;;;;0.00;0.00;;;;;;;36.23;nan;100568.22;5031583;28;20041;-82
2023/05/28 11:30:09;;;;;;;0.00;0.00;;;;;;;36.17;nan;100566.78;5027609;28;20033;-83
2023/05/28 11:32:35;;;;;;;0.00;0.00;;;;;;;36.18;nan;100562.88;5009148;28;20041;-84
2023/05/28 11:35:01;;;;;;;0.00;0.00;;;;;;;36.53;nan;100566.44;5011980;28;20038;-83
2023/05/28 11:37:28;;;;;;;0.00;0.00;;;;;;;37.29;nan;100557.50;5010068;28;20120;-84
2023/05/28 11:39:56;;;;;;;0.00;0.00;;;;;;;37.70;nan;100556.00;5009532;28;20041;-84
2023/05/28 11:42:22;;;;;;;0.00;0.00;;;;;;;37.76;nan;100562.97;5009442;28;20038;-83
2023/05/28 11:44:49;;;;;;;0.00;0.00;;;;;;;38.13;nan;100560.44;5012119;28;20431;-83
2023/05/28 11:47:15;;;;;;;0.00;0.00;;;;;;;38.05;nan;100555.81;5011950;28;20038;-83
2023/05/28 11:49:41;;;;;;;0.00;0.00;;;;;;;37.91;nan;100555.25;5021990;28;20044;-83
2023/05/28 11:52:15;;;;;;;0.00;0.00;;;;;;;37.65;nan;100549.91;5015633;28;20030;-83
2023/05/28 11:54:42;;;;;;;0.00;0.00;;;;;;;37.82;nan;100553.34;5010946;28;20050;-84
2023/05/28 11:57:08;;;;;;;0.00;0.00;;;;;;;37.57;nan;100546.84;5011396;28;20084;-83